createdAt,value
2023-03-06T00:01:10.381Z,100.00
2023-03-06T00:03:55.486Z,100.00
2023-03-06T00:06:41.002Z,100.00
2023-03-06T00:09:25.856Z,100.00
2023-03-06T00:12:10.797Z,100.00
2023-03-06T00:14:55.739Z,100.00
2023-03-06T00:17:40.821Z,100.00
2023-03-06T00:20:26.567Z,100.00
2023-03-06T00:23:11.706Z,100.00
2023-03-06T00:25:56.135Z,100.00
2023-03-06T00:28:41.020Z,100.00
2023-03-06T00:31:27.188Z,100.00
2023-03-06T00:34:11.847Z,100.00
2023-03-06T00:36:57.623Z,100.00
2023-03-06T00:39:42.492Z,100.00
2023-03-06T00:42:27.607Z,100.00
2023-03-06T00:45:13.174Z,100.00
2023-03-06T00:47:57.924Z,100.00
2023-03-06T00:50:42.896Z,100.00
2023-03-06T00:53:27.782Z,100.00
2023-03-06T00:56:13.041Z,100.00
2023-03-06T00:58:57.648Z,100.00
2023-03-06T01:01:43.772Z,100.00
2023-03-06T01:04:30.488Z,100.00
2023-03-06T01:07:15.248Z,100.00
2023-03-06T01:10:00.078Z,100.00
2023-03-06T01:12:45.239Z,100.00
2023-03-06T01:15:30.078Z,100.00
2023-03-06T01:18:16.213Z,100.00
2023-03-06T01:21:00.918Z,100.00
2023-03-06T01:23:47.116Z,100.00
2023-03-06T01:26:32.946Z,100.00
2023-03-06T01:29:17.764Z,100.00
2023-03-06T01:32:02.889Z,100.00
2023-03-06T01:34:47.723Z,100.00
2023-03-06T01:37:34.942Z,100.00
2023-03-06T01:40:20.808Z,100.00
2023-03-06T01:43:27.049Z,100.00
2023-03-06T01:46:44.220Z,100.00
2023-03-06T01:49:39.643Z,100.00
2023-03-06T01:52:30.641Z,100.00
2023-03-06T01:55:17.408Z,100.00
2023-03-06T01:58:15.371Z,100.00
2023-03-06T02:01:00.209Z,100.00
2023-03-06T02:03:46.986Z,100.00
2023-03-06T02:06:35.101Z,100.00
2023-03-06T02:09:21.326Z,100.00
2023-03-06T02:12:12.758Z,100.00
2023-03-06T02:14:57.464Z,100.00
2023-03-06T02:17:44.564Z,100.00
2023-03-06T02:20:39.395Z,100.00
2023-03-06T02:23:27.141Z,100.00
2023-03-06T02:26:13.319Z,100.00
2023-03-06T02:28:58.644Z,100.00
2023-03-06T02:31:43.261Z,100.00
2023-03-06T02:34:28.098Z,100.00
2023-03-06T02:37:13.040Z,100.00
2023-03-06T02:40:07.675Z,100.00
2023-03-06T02:42:55.909Z,100.00
2023-03-06T02:45:45.060Z,100.00
2023-03-06T02:48:29.946Z,100.00
2023-03-06T02:51:14.788Z,100.00
2023-03-06T02:53:59.721Z,100.00
2023-03-06T02:56:45.344Z,100.00
2023-03-06T02:59:30.479Z,100.00
2023-03-06T03:03:06.150Z,100.00
2023-03-06T03:05:50.686Z,100.00
2023-03-06T03:08:41.138Z,100.00
2023-03-06T03:11:27.117Z,100.00
2023-03-06T03:14:12.174Z,100.00
2023-03-06T03:16:57.081Z,100.00
2023-03-06T03:19:44.654Z,100.00
2023-03-06T03:22:29.990Z,100.00
2023-03-06T03:25:14.624Z,100.00
2023-03-06T03:28:00.266Z,100.00
2023-03-06T03:30:45.609Z,100.00
2023-03-06T03:33:32.298Z,100.00
2023-03-06T03:36:17.589Z,100.00
2023-03-06T03:39:04.735Z,100.00
2023-03-06T03:41:49.728Z,100.00
2023-03-06T03:44:35.496Z,100.00
2023-03-06T03:47:20.898Z,100.00
2023-03-06T03:50:07.672Z,100.00
2023-03-06T03:52:53.512Z,100.00
2023-03-06T03:55:38.728Z,100.00
2023-03-06T03:58:23.845Z,100.00
2023-03-06T04:01:09.168Z,100.00
2023-03-06T04:03:54.565Z,100.00
2023-03-06T04:06:39.749Z,100.00
2023-03-06T04:09:25.632Z,100.00
2023-03-06T04:12:10.516Z,100.00
2023-03-06T04:14:55.397Z,100.00
2023-03-06T04:17:40.418Z,100.00
2023-03-06T04:20:29.564Z,100.00
2023-03-06T04:23:17.627Z,100.00
2023-03-06T04:26:02.997Z,100.00
2023-03-06T04:28:47.865Z,100.00
2023-03-06T04:31:33.015Z,100.00
2023-03-06T04:34:18.155Z,100.00
2023-03-06T04:37:04.456Z,100.00
2023-03-06T04:39:49.359Z,100.00
2023-03-06T04:42:34.418Z,100.00
2023-03-06T04:45:19.193Z,100.00
2023-03-06T04:48:04.408Z,100.00
2023-03-06T04:50:49.049Z,100.00
2023-03-06T04:53:33.664Z,100.00
2023-03-06T04:56:18.582Z,100.00
2023-03-06T04:59:04.133Z,100.00
2023-03-06T05:01:49.493Z,100.00
2023-03-06T05:04:34.457Z,100.00
2023-03-06T05:07:19.171Z,100.00
2023-03-06T05:10:04.749Z,100.00
2023-03-06T05:12:49.320Z,100.00
2023-03-06T05:15:34.418Z,100.00
2023-03-06T05:18:20.513Z,100.00
2023-03-06T05:21:06.202Z,100.00
2023-03-06T05:23:51.444Z,100.00
2023-03-06T05:26:36.169Z,100.00
2023-03-06T05:29:21.134Z,100.00
2023-03-06T05:32:06.382Z,100.00
2023-03-06T05:34:51.624Z,100.00
2023-03-06T05:37:36.450Z,100.00
2023-03-06T05:40:21.888Z,100.00
2023-03-06T05:43:07.474Z,100.00
2023-03-06T05:46:03.667Z,100.00
2023-03-06T05:48:48.483Z,100.00
2023-03-06T05:51:33.071Z,100.00
2023-03-06T05:54:18.580Z,100.00
2023-03-06T05:57:04.994Z,100.00
2023-03-06T05:59:50.976Z,100.00
2023-03-06T06:02:36.043Z,100.00
2023-03-06T06:05:21.052Z,100.00
2023-03-06T06:08:05.904Z,100.00
2023-03-06T06:10:53.326Z,100.00
2023-03-06T06:13:39.321Z,100.00
2023-03-06T06:16:24.996Z,100.00
2023-03-06T06:19:10.847Z,100.00
2023-03-06T06:22:10.972Z,100.00
2023-03-06T06:25:05.044Z,100.00
2023-03-06T06:28:11.924Z,100.00
2023-03-06T06:34:27.201Z,100.00
2023-03-06T06:37:31.582Z,100.00
2023-03-06T06:40:22.975Z,100.00
2023-03-06T06:43:08.151Z,100.00
2023-03-06T06:46:44.538Z,100.00
2023-03-06T06:49:58.109Z,100.00
2023-03-06T06:52:46.677Z,100.00
2023-03-06T06:55:34.481Z,100.00
2023-03-06T06:58:22.040Z,100.00
2023-03-06T07:01:51.132Z,100.00
2023-03-06T07:05:22.177Z,100.00
2023-03-06T07:08:46.193Z,100.00
2023-03-06T07:11:35.736Z,100.00
2023-03-06T07:14:20.616Z,100.00
2023-03-06T07:17:16.506Z,100.00
2023-03-06T07:20:01.246Z,100.00
2023-03-06T07:22:51.473Z,100.00
2023-03-06T07:25:42.331Z,100.00
2023-03-06T07:28:49.798Z,100.00
2023-03-06T07:31:36.515Z,100.00
2023-03-06T07:34:21.855Z,100.00
2023-03-06T07:37:06.562Z,100.00
2023-03-06T07:39:59.934Z,100.00
2023-03-06T07:42:45.256Z,100.00
2023-03-06T07:45:34.499Z,100.00
2023-03-06T07:48:19.377Z,100.00
2023-03-06T07:51:06.920Z,100.00
2023-03-06T07:53:51.620Z,100.00
2023-03-06T07:56:36.782Z,100.00
2023-03-06T07:59:21.839Z,100.00
2023-03-06T08:02:06.713Z,100.00
2023-03-06T08:04:55.915Z,100.00
2023-03-06T08:07:41.206Z,100.00
2023-03-06T08:10:26.113Z,100.00
2023-03-06T08:13:11.105Z,100.00
2023-03-06T08:15:56.116Z,100.00
2023-03-06T08:18:42.770Z,100.00
2023-03-06T08:21:28.825Z,96.40
2023-03-06T08:24:16.280Z,98.61
2023-03-06T08:27:01.327Z,93.38
2023-03-06T08:29:46.092Z,91.13
2023-03-06T08:32:31.160Z,93.67
2023-03-06T08:35:26.417Z,97.40
2023-03-06T08:38:11.869Z,92.53
2023-03-06T08:40:57.013Z,98.43
2023-03-06T08:43:42.061Z,95.64
2023-03-06T08:46:30.033Z,92.12
2023-03-06T08:49:15.123Z,82.48
2023-03-06T08:52:00.388Z,86.50
2023-03-06T08:55:31.033Z,84.89
2023-03-06T09:10:41.563Z,70.92
2023-03-06T09:14:22.687Z,73.41
2023-03-06T09:17:32.743Z,75.22
2023-03-06T09:20:20.765Z,69.35
2023-03-06T09:23:41.246Z,79.18
2023-03-06T09:26:39.652Z,84.57
2023-03-06T09:29:37.114Z,87.52
2023-03-06T09:32:48.298Z,94.69
2023-03-06T09:35:47.980Z,76.45
2023-03-06T09:38:33.145Z,77.12
2023-03-06T09:43:02.659Z,72.47
2023-03-06T09:46:07.241Z,59.84
2023-03-06T09:49:37.180Z,62.60
2023-03-06T09:52:40.443Z,64.87
2023-03-06T09:59:33.295Z,63.27
2023-03-06T10:03:03.068Z,60.22
2023-03-06T10:05:54.917Z,60.82
2023-03-06T10:09:22.210Z,61.48
2023-03-06T10:12:39.268Z,57.44
2023-03-06T10:15:31.859Z,56.79
2023-03-06T10:22:07.634Z,59.28
2023-03-06T10:25:45.703Z,63.65
2023-03-06T10:28:37.094Z,69.66
2023-03-06T10:31:26.601Z,71.88
2023-03-06T10:34:21.796Z,75.12
2023-03-06T10:37:19.039Z,72.11
2023-03-06T10:40:27.233Z,64.43
2023-03-06T10:43:21.066Z,64.54
2023-03-06T10:46:12.631Z,61.74
2023-03-06T10:53:57.335Z,60.81
2023-03-06T10:56:44.712Z,59.64
2023-03-06T11:00:05.613Z,61.16
2023-03-06T11:12:15.819Z,63.81
2023-03-06T11:15:50.382Z,64.78
2023-03-06T11:18:58.777Z,63.47
2023-03-06T11:22:28.340Z,63.00
2023-03-06T11:25:46.994Z,62.02
2023-03-06T11:29:22.713Z,61.63
2023-03-06T11:32:21.617Z,61.39
2023-03-06T11:35:12.399Z,57.33
2023-03-06T11:38:06.242Z,57.42
2023-03-06T11:40:55.586Z,57.71
2023-03-06T11:44:15.323Z,57.81
2023-03-06T11:47:15.152Z,55.82
2023-03-06T11:50:28.966Z,55.11
2023-03-06T11:53:40.009Z,54.37
2023-03-06T11:57:01.689Z,53.73
2023-03-06T12:00:16.429Z,54.91
2023-03-06T12:03:35.439Z,55.66
2023-03-06T12:06:34.527Z,56.18
2023-03-06T12:09:31.791Z,57.80
2023-03-06T12:12:46.097Z,57.76
2023-03-06T12:16:08.782Z,57.17
2023-03-06T12:19:11.762Z,53.93
2023-03-06T12:22:18.512Z,54.17
2023-03-06T12:25:31.829Z,53.34
2023-03-06T12:28:22.446Z,53.88
2023-03-06T12:31:25.088Z,53.90
2023-03-06T12:34:28.240Z,51.58
2023-03-06T12:37:28.306Z,51.80
2023-03-06T12:40:31.839Z,53.92
2023-03-06T12:43:44.371Z,55.65
2023-03-06T12:46:29.909Z,58.40
2023-03-06T12:49:33.157Z,61.09
2023-03-06T12:52:30.537Z,65.63
2023-03-06T12:55:19.383Z,70.37
2023-03-06T12:58:35.338Z,71.16
2023-03-06T13:01:54.484Z,75.02
2023-03-06T13:04:59.608Z,85.66
2023-03-06T13:08:11.433Z,94.17
2023-03-06T13:11:26.006Z,100.00
2023-03-06T13:14:34.102Z,100.00
2023-03-06T13:17:22.451Z,100.00
2023-03-06T13:20:13.704Z,100.00
2023-03-06T13:22:58.451Z,100.00
2023-03-06T13:25:47.341Z,100.00
2023-03-06T13:28:56.190Z,100.00
2023-03-06T13:31:40.893Z,100.00
2023-03-06T13:34:42.281Z,100.00
2023-03-06T13:37:33.422Z,100.00
2023-03-06T13:40:29.314Z,100.00
2023-03-06T13:43:20.800Z,100.00
2023-03-06T13:46:26.747Z,100.00
2023-03-06T13:49:22.647Z,100.00
2023-03-06T13:52:31.535Z,100.00
2023-03-06T13:55:21.944Z,94.63
2023-03-06T13:58:12.604Z,90.81
2023-03-06T14:01:25.706Z,90.60
2023-03-06T14:04:27.421Z,95.11
2023-03-06T14:07:23.400Z,100.00
2023-03-06T14:10:13.822Z,100.00
2023-03-06T14:13:32.199Z,100.00
2023-03-06T14:16:23.779Z,100.00
2023-03-06T14:19:16.709Z,100.00
2023-03-06T14:22:03.225Z,100.00
2023-03-06T14:24:55.784Z,100.00
2023-03-06T14:27:58.170Z,100.00
2023-03-06T14:30:50.870Z,100.00
2023-03-06T14:33:58.119Z,100.00
2023-03-06T14:36:48.818Z,100.00
2023-03-06T14:39:37.797Z,100.00
2023-03-06T14:42:25.050Z,100.00
2023-03-06T14:45:18.146Z,100.00
2023-03-06T14:48:06.276Z,100.00
2023-03-06T14:50:57.467Z,100.00
2023-03-06T14:53:43.932Z,100.00
2023-03-06T14:56:33.016Z,100.00
2023-03-06T14:59:24.759Z,100.00
2023-03-06T15:02:15.120Z,100.00
2023-03-06T15:05:19.761Z,100.00
2023-03-06T15:08:07.910Z,100.00
2023-03-06T15:11:02.130Z,100.00
2023-03-06T15:14:00.567Z,100.00
2023-03-06T15:16:45.542Z,100.00
2023-03-06T15:19:42.150Z,100.00
2023-03-06T15:22:42.789Z,100.00
2023-03-06T15:25:31.912Z,100.00
2023-03-06T15:28:23.543Z,100.00
2023-03-06T15:31:19.312Z,100.00
2023-03-06T15:34:07.109Z,100.00
2023-03-06T15:36:54.669Z,100.00
2023-03-06T15:39:41.071Z,100.00
2023-03-06T15:42:27.327Z,100.00
2023-03-06T15:45:19.238Z,100.00
2023-03-06T15:48:16.135Z,100.00
2023-03-06T15:51:02.179Z,100.00
2023-03-06T15:53:47.718Z,100.00
2023-03-06T15:56:34.580Z,100.00
2023-03-06T15:59:25.862Z,100.00
2023-03-06T16:02:17.470Z,100.00
2023-03-06T16:05:05.124Z,100.00
2023-03-06T16:07:49.960Z,100.00
2023-03-06T16:10:38.729Z,100.00
2023-03-06T16:13:28.136Z,100.00
2023-03-06T16:16:18.706Z,100.00
2023-03-06T16:19:09.478Z,100.00
2023-03-06T16:21:57.153Z,100.00
2023-03-06T16:24:42.619Z,100.00
2023-03-06T16:27:27.517Z,100.00
2023-03-06T16:30:18.092Z,100.00
2023-03-06T16:33:02.905Z,100.00
2023-03-06T16:35:49.298Z,100.00
2023-03-06T16:38:34.235Z,100.00
2023-03-06T16:41:19.739Z,100.00
2023-03-06T16:44:07.048Z,100.00
2023-03-06T16:46:51.812Z,100.00
2023-03-06T16:49:36.889Z,100.00
2023-03-06T16:52:21.412Z,100.00
2023-03-06T16:55:06.830Z,100.00
2023-03-06T16:57:51.418Z,100.00
2023-03-06T17:00:36.752Z,100.00
2023-03-06T17:03:21.603Z,100.00
2023-03-06T17:06:17.810Z,100.00
2023-03-06T17:09:02.506Z,100.00
2023-03-06T17:11:47.400Z,100.00
2023-03-06T17:14:33.216Z,100.00
2023-03-06T17:17:18.300Z,100.00
2023-03-06T17:20:04.145Z,100.00
2023-03-06T17:22:49.580Z,100.00
2023-03-06T17:25:34.439Z,100.00
2023-03-06T17:28:19.364Z,100.00
2023-03-06T17:31:15.725Z,100.00
2023-03-06T17:34:00.830Z,100.00
2023-03-06T17:36:45.402Z,100.00
2023-03-06T17:39:38.150Z,100.00
2023-03-06T17:42:23.544Z,100.00
2023-03-06T17:45:08.950Z,100.00
2023-03-06T17:47:53.855Z,100.00
2023-03-06T17:50:38.738Z,100.00
2023-03-06T17:53:24.274Z,100.00
2023-03-06T17:56:12.669Z,100.00
2023-03-06T17:58:58.921Z,100.00
2023-03-06T18:01:44.423Z,100.00
2023-03-06T18:04:29.601Z,100.00
2023-03-06T18:07:15.028Z,100.00
2023-03-06T18:09:59.502Z,100.00
2023-03-06T18:12:44.226Z,100.00
2023-03-06T18:15:29.476Z,100.00
2023-03-06T18:18:14.062Z,100.00
2023-03-06T18:21:07.542Z,100.00
2023-03-06T18:23:52.492Z,100.00
2023-03-06T18:26:37.487Z,100.00
2023-03-06T18:29:22.474Z,100.00
2023-03-06T18:32:09.954Z,100.00
2023-03-06T18:34:55.453Z,100.00
2023-03-06T18:37:40.061Z,100.00
2023-03-06T18:40:24.967Z,100.00
2023-03-06T18:43:09.375Z,100.00
2023-03-06T18:45:55.184Z,100.00
2023-03-06T18:48:39.992Z,100.00
2023-03-06T18:51:25.587Z,100.00
2023-03-06T18:54:11.058Z,100.00
2023-03-06T18:56:55.895Z,100.00
2023-03-06T18:59:40.646Z,100.00
2023-03-06T19:02:25.587Z,100.00
2023-03-06T19:05:10.531Z,100.00
2023-03-06T19:07:55.757Z,100.00
2023-03-06T19:10:41.904Z,100.00
2023-03-06T19:13:26.654Z,100.00
2023-03-06T19:16:20.806Z,100.00
2023-03-06T19:19:05.492Z,100.00
2023-03-06T19:21:50.309Z,100.00
2023-03-06T19:24:35.448Z,100.00
2023-03-06T19:27:20.763Z,100.00
2023-03-06T19:30:06.609Z,100.00
2023-03-06T19:32:52.680Z,100.00
2023-03-06T19:35:37.502Z,100.00
2023-03-06T19:38:24.146Z,100.00
2023-03-06T19:41:13.054Z,100.00
2023-03-06T19:44:01.592Z,100.00
2023-03-06T19:46:46.428Z,100.00
2023-03-06T19:49:31.294Z,100.00
2023-03-06T19:52:17.514Z,100.00
2023-03-06T19:55:02.079Z,100.00
2023-03-06T19:57:48.367Z,100.00
2023-03-06T20:00:34.978Z,100.00
2023-03-06T20:03:19.806Z,100.00
2023-03-06T20:06:08.359Z,100.00
2023-03-06T20:08:53.542Z,100.00
2023-03-06T20:11:38.882Z,100.00
2023-03-06T20:14:23.506Z,100.00
2023-03-06T20:17:08.434Z,100.00
2023-03-06T20:19:53.392Z,100.00
2023-03-06T20:22:38.463Z,100.00
2023-03-06T20:25:23.238Z,100.00
2023-03-06T20:28:07.853Z,100.00
2023-03-06T20:30:52.476Z,100.00
2023-03-06T20:33:37.247Z,100.00
2023-03-06T20:36:28.330Z,100.00
2023-03-06T20:39:15.065Z,100.00
2023-03-06T20:42:00.397Z,100.00
2023-03-06T20:44:45.117Z,100.00
2023-03-06T20:47:29.760Z,100.00
2023-03-06T20:50:15.429Z,100.00
2023-03-06T20:52:59.933Z,100.00
2023-03-06T20:55:46.065Z,100.00
2023-03-06T20:58:32.183Z,100.00
2023-03-06T21:01:28.759Z,100.00
2023-03-06T21:04:15.083Z,100.00
2023-03-06T21:07:00.258Z,100.00
2023-03-06T21:09:44.833Z,100.00
2023-03-06T21:12:29.366Z,100.00
2023-03-06T21:15:13.920Z,100.00
2023-03-06T21:17:58.662Z,100.00
2023-03-06T21:20:43.362Z,100.00
2023-03-06T21:23:28.059Z,100.00
2023-03-06T21:26:19.198Z,100.00
2023-03-06T21:29:04.478Z,100.00
2023-03-06T21:31:49.419Z,100.00
2023-03-06T21:34:34.360Z,100.00
2023-03-06T21:37:18.907Z,100.00
2023-03-06T21:40:06.993Z,100.00
2023-03-06T21:42:51.605Z,100.00
2023-03-06T21:45:36.388Z,100.00
2023-03-06T21:48:21.062Z,100.00
2023-03-06T21:51:13.361Z,100.00
2023-03-06T21:53:58.389Z,100.00
2023-03-06T21:56:43.307Z,100.00
2023-03-06T21:59:28.040Z,100.00
2023-03-06T22:02:12.609Z,100.00
2023-03-06T22:04:57.681Z,100.00
2023-03-06T22:07:42.779Z,100.00
2023-03-06T22:10:27.515Z,100.00
2023-03-06T22:13:12.382Z,100.00
2023-03-06T22:15:57.246Z,100.00
2023-03-06T22:18:46.346Z,100.00
2023-03-06T22:21:31.077Z,100.00
2023-03-06T22:24:15.839Z,100.00
2023-03-06T22:27:00.689Z,100.00
2023-03-06T22:29:45.586Z,100.00
2023-03-06T22:32:30.305Z,100.00
2023-03-06T22:35:15.158Z,100.00
2023-03-06T22:38:02.007Z,100.00
2023-03-06T22:40:46.755Z,100.00
2023-03-06T22:43:32.863Z,100.00
2023-03-06T22:46:17.893Z,100.00
2023-03-06T22:49:03.157Z,100.00
2023-03-06T22:51:47.998Z,100.00
2023-03-06T22:54:32.470Z,100.00
2023-03-06T22:57:17.487Z,100.00
2023-03-06T23:00:03.149Z,100.00
2023-03-06T23:02:47.706Z,100.00
2023-03-06T23:05:32.518Z,100.00
2023-03-06T23:08:17.087Z,100.00
2023-03-06T23:11:01.912Z,100.00
2023-03-06T23:14:05.859Z,100.00
2023-03-06T23:17:10.005Z,100.00
2023-03-06T23:20:14.007Z,100.00
2023-03-06T23:23:17.377Z,100.00
2023-03-06T23:26:02.132Z,100.00
2023-03-06T23:28:47.536Z,100.00
2023-03-06T23:31:32.366Z,100.00
2023-03-06T23:34:17.287Z,100.00
2023-03-06T23:37:01.882Z,100.00
2023-03-06T23:39:47.099Z,100.00
2023-03-06T23:42:32.039Z,100.00
2023-03-06T23:45:17.160Z,100.00
2023-03-06T23:48:02.325Z,100.00
2023-03-06T23:50:46.712Z,100.00
2023-03-06T23:53:31.707Z,100.00
2023-03-06T23:56:16.243Z,100.00
2023-03-06T23:59:00.863Z,100.00
